• Join FlightAware (Why Join?)
  • Login
  • US Flag 
04:27PM EDT


 

Airport Tracker/Info


-or-


 

Live Flight TrackerFlight Track Log ✈ N960DL ✈ 20-Jun-2013 ✈ KMEM - KATL

Flight Track Log - Related Links

Times and Time Zones

All times are in EDT time to prevent confusion due to time zone crossing. See the N960DL flight status page for this flight to view local times or setup timezone preferences in your user account.

Time Position Orientation Groundspeed Altitude Reporting Facility
EDT Latitude Longitude Course Direction KTS MPH feet Rate Location/Type
01:21PM 35.0167 -89.9667 98° East 163 188 1,300  Level KMEM
01:23PM 34.9333 -89.9333 162° South 268 308 3,900 2,160 Climbing KMEM
01:24PM 34.9606 -89.6186 103° East  Level Estimated
01:24PM 34.9333 -89.8500 90° East 285 328 6,700  Level KMEM
01:25PM 34.9447 -89.4963 99° East  Level FlightAware Approximate
01:25PM 34.9333 -89.7500 90° East 278 320 7,000  Level KMEM
01:26PM 34.9286 -89.3740 99° East  Level FlightAware Approximate
01:26PM 34.9167 -89.6667 104° East 276 318 7,000  Level KMEM
01:27PM 34.9004 -89.2551 98° East  Level Estimated
01:27PM 34.9169 -89.5392 90° East 302 348 9,900  Level Memphis Center
01:28PM 34.9100 -89.4456 95° East 312 359 11,200 1,920 Climbing Memphis Center
01:29PM 34.9069 -89.3214 92° East 337 388 13,800 2,760 Climbing Memphis Center
01:30PM 34.9039 -89.1972 92° East 358 412 16,800 2,520 Climbing Memphis Center
01:31PM 34.8900 -89.0736 98° East 366 421 18,900 1,800 Climbing Memphis Center
01:32PM 34.8700 -88.9497 101° East 371 427 20,400 2,100 Climbing Memphis Center
01:33PM 34.8431 -88.8033 103° East 383 441 23,100 2,160 Climbing Memphis Center
01:34PM 34.8186 -88.6775 103° East 388 447 24,800 1,500 Climbing Memphis Center
01:35PM 34.7939 -88.5464 103° East 394 453 26,100 1,140 Climbing Memphis Center
01:36PM 34.7733 -88.4331 102° East 388 447 27,100 960 Climbing Memphis Center
01:37PM 34.7503 -88.2922 101° East 402 463 28,100 1,140 Climbing Memphis Center
01:38PM 34.7222 -88.1261 102° East 440 506 29,400 900 Climbing Memphis Center
01:39PM 34.6967 -87.9778 102° East 449 517 29,900 480 Climbing Memphis Center
01:41PM 34.6503 -87.6850 101° East 461 531 30,900 360 Climbing Atlanta Center
01:42PM 34.6217 -87.5169 102° East 485 558 31,000  Climbing Atlanta Center
01:43PM 34.5931 -87.3469 102° East 499 574 31,000  Level Atlanta Center
01:44PM 34.5581 -87.1639 103° East 504 580 31,000  Level Atlanta Center
01:45PM 34.5267 -86.9964 103° East 509 586 31,000  Level Atlanta Center
01:46PM 34.4975 -86.8264 102° East 509 586 31,000  Level Atlanta Center
01:47PM 34.4653 -86.6667 104° East 509 586 31,000  Level Atlanta Center
01:48PM 34.4356 -86.4994 102° East 504 580 31,000  Level Atlanta Center
01:49PM 34.4053 -86.3350 103° East 504 580 31,000 -540 Level Atlanta Center
01:50PM 34.3747 -86.1731 103° East 499 574 30,000 -1,800 Descending Atlanta Center
01:51PM 34.3400 -86.0061 104° East 499 574 27,400 -2,700 Descending Atlanta Center
01:52PM 34.3133 -85.8444 101° East 494 568 24,700 -2,580 Descending Atlanta Center
01:53PM 34.2819 -85.6981 105° East 465 535 22,300 -2,520 Descending Atlanta Center
01:54PM 34.2525 -85.5517 104° East 451 519 19,700 -2,280 Descending Atlanta Center
01:55PM 34.2250 -85.4156 104° East 432 497 17,800 -1,440 Descending Atlanta Center
01:56PM 34.2011 -85.2947 103° East 397 457 16,900 -1,440 Descending Atlanta Center
01:57PM 34.1772 -85.1786 104° East 361 415 15,000 -1,800 Descending Atlanta Center
01:58PM 34.1364 -85.0803 117° Southeast 336 387 13,400 -1,140 Descending Atlanta Center
01:59PM 34.0681 -85.0067 138° Southeast 325 374 12,800 -1,020 Descending Atlanta Center
02:00PM 33.9847 -84.9883 170° South 301 346 11,400 -1,560 Descending Atlanta Center
02:01PM 33.9036 -84.9650 167° South 296 341 9,700 -1,260 Descending Atlanta Center
02:02PM 33.8242 -84.9539 173° South 294 338 8,900 -900 Descending Atlanta Center
02:03PM 33.7617 -84.9508 178° South 272 313 8,000 -540 Descending Atlanta Center
02:04PM 33.6992 -84.9403 172° South 245 282 7,900 -420 Descending Atlanta Center
02:05PM 33.6428 -84.9197 163° South 229 264 7,200 -480 Descending Atlanta Center
02:07PM 33.6333 -84.8167 96° East 176 203 6,800 -540 Descending Atlanta TRACON
02:07PM 33.6333 -84.7667 90° East 180 207 6,000 -960 Descending Atlanta TRACON
02:08PM 33.6333 -84.7000 90° East 170 196 5,000 -960 Descending Atlanta TRACON
02:09PM 33.6333 -84.6500 90° East 172 198 4,100 -900 Descending Atlanta TRACON